This is the latest recevied weather packets stored in our database for station/object EA8EE-7. If no packets are shown the sender has not sent any weather packets the latest 10 day(s).
| Time | Temp. | Humidity | Pressure | Rain* | Wind** | Luminosity | Snow |
|---|---|---|---|---|---|---|---|
| 1778079643 | 32.22° C | 41% | 1004 hPa | - | - | - | - |
| 1778079043 | 32.22° C | 41% | 1012.5 hPa | - | - | - | - |
| 1778078443 | 31.67° C | 41% | 1001.1 hPa | - | - | - | - |
| 1778077843 | 31.67° C | 41% | 1010.4 hPa | - | - | - | - |
| 1778077243 | 32.22° C | 40% | 1002 hPa | - | - | - | - |
| 1778076643 | 32.22° C | 40% | 1002.1 hPa | - | - | - | - |
| 1778076042 | 32.22° C | 40% | 1002.5 hPa | - | - | - | - |
| 1778075443 | 32.22° C | 40% | 1001.7 hPa | - | - | - | - |
| 1778074841 | 32.22° C | 40% | 1005.4 hPa | - | - | - | - |
| 1778074241 | 32.22° C | 40% | 1012 hPa | - | - | - | - |
| 1778073641 | 32.22° C | 40% | 1015.1 hPa | - | - | - | - |
| 1778073042 | 32.78° C | 40% | 1001.4 hPa | - | - | - | - |
| 1778072441 | 33.33° C | 40% | 1012.7 hPa | - | - | - | - |
| 1778071841 | 33.89° C | 41% | 1015.1 hPa | - | - | - | - |
| 1778071241 | 34.44° C | 42% | 1010.3 hPa | - | - | - | - |
| 1778070641 | 33.89° C | 44% | 1002.9 hPa | - | - | - | - |
| 1778070041 | 34.44° C | 43% | 1018.5 hPa | - | - | - | - |
| 1778069177 | 32.78° C | 48% | 1014.2 hPa | - | - | - | - |
| 1778068577 | 31.67° C | 52% | 1000.1 hPa | - | - | - | - |
| 1778067977 | 28.89° C | 56% | 1000.2 hPa | - | - | - | - |
| 1778067377 | 25.56° C | 60% | 1005.2 hPa | - | - | - | - |
* Rain since midnight (hover to see other rain measurements)
** Current wind speed in m/s (hover to see current wind gust speed)